sensor_id;sensor_type;location;lat;lon;timestamp;P1;durP1;ratioP1;P2;durP2;ratioP2
6442;SDS011;3254;47.372;8.512;2023-07-29T00:00:46;5.90;;;5.50;;
6442;SDS011;3254;47.372;8.512;2023-07-29T00:03:12;6.00;;;5.40;;
6442;SDS011;3254;47.372;8.512;2023-07-29T00:05:39;6.40;;;5.90;;
6442;SDS011;3254;47.372;8.512;2023-07-29T00:08:05;5.50;;;5.10;;
6442;SDS011;3254;47.372;8.512;2023-07-29T00:10:32;6.73;;;6.10;;
6442;SDS011;3254;47.372;8.512;2023-07-29T00:13:01;9.27;;;6.90;;
6442;SDS011;3254;47.372;8.512;2023-07-29T00:15:26;7.57;;;6.97;;
6442;SDS011;3254;47.372;8.512;2023-07-29T00:17:52;8.77;;;7.30;;
6442;SDS011;3254;47.372;8.512;2023-07-29T00:20:18;7.80;;;6.77;;
6442;SDS011;3254;47.372;8.512;2023-07-29T00:22:43;9.67;;;6.43;;
6442;SDS011;3254;47.372;8.512;2023-07-29T00:25:13;9.50;;;7.37;;
6442;SDS011;3254;47.372;8.512;2023-07-29T00:27:42;8.03;;;7.33;;
6442;SDS011;3254;47.372;8.512;2023-07-29T00:30:08;11.20;;;7.87;;
6442;SDS011;3254;47.372;8.512;2023-07-29T00:32:34;8.67;;;7.70;;
6442;SDS011;3254;47.372;8.512;2023-07-29T00:35:01;9.00;;;7.20;;
6442;SDS011;3254;47.372;8.512;2023-07-29T00:37:28;13.30;;;8.03;;
6442;SDS011;3254;47.372;8.512;2023-07-29T00:39:56;11.17;;;8.27;;
6442;SDS011;3254;47.372;8.512;2023-07-29T00:42:25;9.00;;;8.10;;
6442;SDS011;3254;47.372;8.512;2023-07-29T00:44:51;8.53;;;7.80;;
6442;SDS011;3254;47.372;8.512;2023-07-29T00:47:17;10.07;;;7.67;;
6442;SDS011;3254;47.372;8.512;2023-07-29T00:49:43;8.87;;;8.03;;
6442;SDS011;3254;47.372;8.512;2023-07-29T00:52:10;9.40;;;8.00;;
6442;SDS011;3254;47.372;8.512;2023-07-29T00:54:39;8.03;;;7.30;;
6442;SDS011;3254;47.372;8.512;2023-07-29T00:57:07;9.50;;;7.30;;
6442;SDS011;3254;47.372;8.512;2023-07-29T00:59:37;8.50;;;7.50;;
6442;SDS011;3254;47.372;8.512;2023-07-29T01:02:04;9.73;;;7.07;;
6442;SDS011;3254;47.372;8.512;2023-07-29T01:04:31;8.03;;;7.23;;
6442;SDS011;3254;47.372;8.512;2023-07-29T01:12:50;6.90;;;6.37;;
6442;SDS011;3254;47.372;8.512;2023-07-29T01:15:38;7.40;;;6.33;;
6442;SDS011;3254;47.372;8.512;2023-07-29T01:18:28;11.80;;;5.53;;
6442;SDS011;3254;47.372;8.512;2023-07-29T01:20:59;9.23;;;7.20;;
6442;SDS011;3254;47.372;8.512;2023-07-29T01:23:31;6.77;;;6.17;;
6442;SDS011;3254;47.372;8.512;2023-07-29T01:25:58;9.93;;;6.30;;
6442;SDS011;3254;47.372;8.512;2023-07-29T01:28:25;7.73;;;6.87;;
6442;SDS011;3254;47.372;8.512;2023-07-29T01:30:52;7.50;;;6.77;;
6442;SDS011;3254;47.372;8.512;2023-07-29T01:33:26;10.70;;;7.40;;
6442;SDS011;3254;47.372;8.512;2023-07-29T01:36:00;7.57;;;6.90;;
6442;SDS011;3254;47.372;8.512;2023-07-29T01:38:29;13.13;;;6.77;;
6442;SDS011;3254;47.372;8.512;2023-07-29T01:41:00;12.10;;;6.93;;
6442;SDS011;3254;47.372;8.512;2023-07-29T01:43:31;9.93;;;7.77;;
6442;SDS011;3254;47.372;8.512;2023-07-29T01:45:57;9.90;;;8.90;;
6442;SDS011;3254;47.372;8.512;2023-07-29T01:48:24;8.93;;;8.00;;
6442;SDS011;3254;47.372;8.512;2023-07-29T01:50:51;14.37;;;7.77;;
6442;SDS011;3254;47.372;8.512;2023-07-29T01:53:18;20.87;;;7.60;;
6442;SDS011;3254;47.372;8.512;2023-07-29T01:55:43;8.13;;;7.33;;
6442;SDS011;3254;47.372;8.512;2023-07-29T01:58:09;12.50;;;8.13;;
6442;SDS011;3254;47.372;8.512;2023-07-29T02:00:37;8.10;;;6.57;;
6442;SDS011;3254;47.372;8.512;2023-07-29T02:03:04;11.63;;;7.37;;
6442;SDS011;3254;47.372;8.512;2023-07-29T02:05:29;11.47;;;7.67;;
6442;SDS011;3254;47.372;8.512;2023-07-29T02:07:55;9.93;;;7.43;;
6442;SDS011;3254;47.372;8.512;2023-07-29T02:10:22;8.90;;;7.60;;
6442;SDS011;3254;47.372;8.512;2023-07-29T02:12:48;8.63;;;7.73;;
6442;SDS011;3254;47.372;8.512;2023-07-29T02:15:13;12.17;;;8.40;;
6442;SDS011;3254;47.372;8.512;2023-07-29T02:17:40;9.43;;;8.13;;
6442;SDS011;3254;47.372;8.512;2023-07-29T02:20:07;9.40;;;8.00;;
6442;SDS011;3254;47.372;8.512;2023-07-29T02:22:33;10.23;;;8.67;;
6442;SDS011;3254;47.372;8.512;2023-07-29T02:24:59;9.40;;;8.40;;
6442;SDS011;3254;47.372;8.512;2023-07-29T02:27:26;9.33;;;8.27;;
6442;SDS011;3254;47.372;8.512;2023-07-29T02:29:54;9.17;;;8.20;;
6442;SDS011;3254;47.372;8.512;2023-07-29T02:32:21;8.73;;;7.87;;
6442;SDS011;3254;47.372;8.512;2023-07-29T02:34:46;13.20;;;8.43;;
6442;SDS011;3254;47.372;8.512;2023-07-29T02:37:13;11.83;;;8.40;;
6442;SDS011;3254;47.372;8.512;2023-07-29T02:39:39;12.50;;;9.00;;
6442;SDS011;3254;47.372;8.512;2023-07-29T02:42:05;9.90;;;8.90;;
6442;SDS011;3254;47.372;8.512;2023-07-29T02:44:30;10.30;;;8.70;;
6442;SDS011;3254;47.372;8.512;2023-07-29T02:46:57;10.30;;;8.77;;
6442;SDS011;3254;47.372;8.512;2023-07-29T02:49:23;9.10;;;8.20;;
6442;SDS011;3254;47.372;8.512;2023-07-29T02:51:50;10.67;;;8.63;;
6442;SDS011;3254;47.372;8.512;2023-07-29T02:54:16;8.50;;;7.70;;
6442;SDS011;3254;47.372;8.512;2023-07-29T02:56:42;8.20;;;7.50;;
6442;SDS011;3254;47.372;8.512;2023-07-29T02:59:10;8.23;;;7.40;;
6442;SDS011;3254;47.372;8.512;2023-07-29T03:01:42;9.57;;;8.00;;
6442;SDS011;3254;47.372;8.512;2023-07-29T03:04:08;8.47;;;7.67;;
6442;SDS011;3254;47.372;8.512;2023-07-29T03:06:33;10.20;;;8.57;;
6442;SDS011;3254;47.372;8.512;2023-07-29T03:09:00;10.30;;;8.50;;
6442;SDS011;3254;47.372;8.512;2023-07-29T03:11:25;8.60;;;7.83;;
6442;SDS011;3254;47.372;8.512;2023-07-29T03:13:51;8.70;;;7.83;;
6442;SDS011;3254;47.372;8.512;2023-07-29T03:16:17;8.13;;;7.40;;
6442;SDS011;3254;47.372;8.512;2023-07-29T03:18:45;10.07;;;8.10;;
6442;SDS011;3254;47.372;8.512;2023-07-29T03:21:13;8.63;;;7.73;;
6442;SDS011;3254;47.372;8.512;2023-07-29T03:23:38;8.43;;;7.63;;
6442;SDS011;3254;47.372;8.512;2023-07-29T03:26:04;9.90;;;8.90;;
6442;SDS011;3254;47.372;8.512;2023-07-29T03:28:40;11.20;;;9.37;;
6442;SDS011;3254;47.372;8.512;2023-07-29T03:31:08;9.03;;;8.13;;
6442;SDS011;3254;47.372;8.512;2023-07-29T03:33:35;8.53;;;7.40;;
6442;SDS011;3254;47.372;8.512;2023-07-29T03:36:01;8.13;;;7.33;;
6442;SDS011;3254;47.372;8.512;2023-07-29T03:38:27;8.80;;;6.43;;
6442;SDS011;3254;47.372;8.512;2023-07-29T03:40:53;10.10;;;6.00;;
6442;SDS011;3254;47.372;8.512;2023-07-29T03:43:24;8.47;;;6.07;;
6442;SDS011;3254;47.372;8.512;2023-07-29T03:45:51;7.30;;;6.60;;
6442;SDS011;3254;47.372;8.512;2023-07-29T03:48:16;9.33;;;7.10;;
6442;SDS011;3254;47.372;8.512;2023-07-29T03:50:42;7.93;;;7.30;;
6442;SDS011;3254;47.372;8.512;2023-07-29T03:53:08;9.47;;;8.50;;
6442;SDS011;3254;47.372;8.512;2023-07-29T03:55:34;9.40;;;8.03;;
6442;SDS011;3254;47.372;8.512;2023-07-29T03:58:01;13.77;;;11.10;;
6442;SDS011;3254;47.372;8.512;2023-07-29T04:00:28;12.13;;;10.53;;
6442;SDS011;3254;47.372;8.512;2023-07-29T04:02:54;13.50;;;10.00;;
6442;SDS011;3254;47.372;8.512;2023-07-29T04:05:22;16.83;;;9.50;;
6442;SDS011;3254;47.372;8.512;2023-07-29T04:07:48;11.77;;;9.97;;
6442;SDS011;3254;47.372;8.512;2023-07-29T04:10:15;13.20;;;10.43;;
6442;SDS011;3254;47.372;8.512;2023-07-29T04:12:40;13.63;;;10.57;;
6442;SDS011;3254;47.372;8.512;2023-07-29T04:15:08;14.67;;;10.73;;
6442;SDS011;3254;47.372;8.512;2023-07-29T04:17:34;14.97;;;11.23;;
6442;SDS011;3254;47.372;8.512;2023-07-29T04:20:00;12.23;;;10.87;;
6442;SDS011;3254;47.372;8.512;2023-07-29T04:22:25;16.67;;;11.03;;
6442;SDS011;3254;47.372;8.512;2023-07-29T04:24:51;15.30;;;11.37;;
6442;SDS011;3254;47.372;8.512;2023-07-29T04:27:16;21.60;;;12.60;;
6442;SDS011;3254;47.372;8.512;2023-07-29T04:29:43;15.47;;;11.70;;
6442;SDS011;3254;47.372;8.512;2023-07-29T04:32:09;16.07;;;11.93;;
6442;SDS011;3254;47.372;8.512;2023-07-29T04:34:37;18.03;;;11.50;;
6442;SDS011;3254;47.372;8.512;2023-07-29T04:37:03;19.67;;;11.50;;
6442;SDS011;3254;47.372;8.512;2023-07-29T04:39:29;21.33;;;13.10;;
6442;SDS011;3254;47.372;8.512;2023-07-29T04:41:54;15.90;;;12.40;;
6442;SDS011;3254;47.372;8.512;2023-07-29T04:44:23;18.10;;;13.33;;
6442;SDS011;3254;47.372;8.512;2023-07-29T04:46:48;26.63;;;14.00;;
6442;SDS011;3254;47.372;8.512;2023-07-29T04:49:18;38.60;;;12.80;;
6442;SDS011;3254;47.372;8.512;2023-07-29T04:51:44;19.13;;;12.40;;
6442;SDS011;3254;47.372;8.512;2023-07-29T04:54:10;18.83;;;13.27;;
6442;SDS011;3254;47.372;8.512;2023-07-29T04:56:36;16.73;;;12.57;;
6442;SDS011;3254;47.372;8.512;2023-07-29T04:59:05;23.33;;;13.70;;
6442;SDS011;3254;47.372;8.512;2023-07-29T05:01:33;19.07;;;12.20;;
6442;SDS011;3254;47.372;8.512;2023-07-29T05:03:58;18.20;;;11.73;;
6442;SDS011;3254;47.372;8.512;2023-07-29T05:06:24;16.27;;;11.17;;
6442;SDS011;3254;47.372;8.512;2023-07-29T05:08:51;14.90;;;12.03;;
6442;SDS011;3254;47.372;8.512;2023-07-29T05:11:17;18.47;;;12.57;;
6442;SDS011;3254;47.372;8.512;2023-07-29T05:13:42;12.77;;;8.87;;
6442;SDS011;3254;47.372;8.512;2023-07-29T05:16:09;8.87;;;7.97;;
6442;SDS011;3254;47.372;8.512;2023-07-29T05:18:34;7.87;;;7.17;;
6442;SDS011;3254;47.372;8.512;2023-07-29T05:21:00;7.83;;;7.00;;
6442;SDS011;3254;47.372;8.512;2023-07-29T05:23:26;7.17;;;6.40;;
6442;SDS011;3254;47.372;8.512;2023-07-29T05:25:51;7.03;;;6.53;;
6442;SDS011;3254;47.372;8.512;2023-07-29T05:28:18;6.97;;;6.37;;
6442;SDS011;3254;47.372;8.512;2023-07-29T05:30:45;6.00;;;5.40;;
6442;SDS011;3254;47.372;8.512;2023-07-29T05:33:10;6.03;;;5.63;;
6442;SDS011;3254;47.372;8.512;2023-07-29T05:35:37;6.33;;;5.73;;
6442;SDS011;3254;47.372;8.512;2023-07-29T05:38:05;5.37;;;5.03;;
6442;SDS011;3254;47.372;8.512;2023-07-29T05:40:34;5.93;;;5.40;;
6442;SDS011;3254;47.372;8.512;2023-07-29T05:42:59;6.50;;;5.93;;
6442;SDS011;3254;47.372;8.512;2023-07-29T05:45:26;7.07;;;5.87;;
6442;SDS011;3254;47.372;8.512;2023-07-29T05:47:53;6.87;;;5.13;;
6442;SDS011;3254;47.372;8.512;2023-07-29T05:50:19;5.30;;;5.00;;
6442;SDS011;3254;47.372;8.512;2023-07-29T05:52:44;5.00;;;4.60;;
6442;SDS011;3254;47.372;8.512;2023-07-29T05:55:11;5.17;;;4.77;;
6442;SDS011;3254;47.372;8.512;2023-07-29T05:57:37;5.43;;;4.67;;
6442;SDS011;3254;47.372;8.512;2023-07-29T06:00:02;5.77;;;5.27;;
6442;SDS011;3254;47.372;8.512;2023-07-29T06:02:30;5.83;;;5.10;;
6442;SDS011;3254;47.372;8.512;2023-07-29T06:04:55;6.23;;;4.93;;
6442;SDS011;3254;47.372;8.512;2023-07-29T06:07:22;4.80;;;4.40;;
6442;SDS011;3254;47.372;8.512;2023-07-29T06:09:48;5.10;;;4.70;;
6442;SDS011;3254;47.372;8.512;2023-07-29T06:12:14;6.70;;;4.53;;
6442;SDS011;3254;47.372;8.512;2023-07-29T06:14:39;5.30;;;4.90;;
6442;SDS011;3254;47.372;8.512;2023-07-29T06:17:06;5.47;;;4.93;;
6442;SDS011;3254;47.372;8.512;2023-07-29T06:19:39;5.33;;;4.93;;
6442;SDS011;3254;47.372;8.512;2023-07-29T06:22:04;5.10;;;4.53;;
6442;SDS011;3254;47.372;8.512;2023-07-29T06:24:34;4.93;;;4.50;;
6442;SDS011;3254;47.372;8.512;2023-07-29T06:27:00;5.13;;;4.53;;
6442;SDS011;3254;47.372;8.512;2023-07-29T06:29:27;4.23;;;4.00;;
6442;SDS011;3254;47.372;8.512;2023-07-29T06:31:55;5.33;;;4.90;;
6442;SDS011;3254;47.372;8.512;2023-07-29T06:34:20;5.27;;;4.60;;
6442;SDS011;3254;47.372;8.512;2023-07-29T06:36:48;4.63;;;4.17;;
6442;SDS011;3254;47.372;8.512;2023-07-29T06:39:16;6.87;;;4.83;;
6442;SDS011;3254;47.372;8.512;2023-07-29T06:41:42;6.47;;;4.50;;
6442;SDS011;3254;47.372;8.512;2023-07-29T06:44:07;4.93;;;4.43;;
6442;SDS011;3254;47.372;8.512;2023-07-29T06:46:33;5.00;;;4.40;;
6442;SDS011;3254;47.372;8.512;2023-07-29T06:48:58;4.80;;;4.33;;
6442;SDS011;3254;47.372;8.512;2023-07-29T06:51:24;4.50;;;4.27;;
6442;SDS011;3254;47.372;8.512;2023-07-29T06:53:49;4.40;;;4.10;;
6442;SDS011;3254;47.372;8.512;2023-07-29T06:56:15;5.70;;;4.93;;
6442;SDS011;3254;47.372;8.512;2023-07-29T06:58:42;4.73;;;4.10;;
6442;SDS011;3254;47.372;8.512;2023-07-29T07:01:07;4.73;;;4.43;;
6442;SDS011;3254;47.372;8.512;2023-07-29T07:03:33;5.07;;;4.67;;
6442;SDS011;3254;47.372;8.512;2023-07-29T07:05:59;8.13;;;4.40;;
6442;SDS011;3254;47.372;8.512;2023-07-29T07:08:26;5.27;;;4.67;;
6442;SDS011;3254;47.372;8.512;2023-07-29T07:10:51;5.63;;;5.10;;
6442;SDS011;3254;47.372;8.512;2023-07-29T07:13:17;4.90;;;4.60;;
6442;SDS011;3254;47.372;8.512;2023-07-29T07:15:42;4.73;;;4.40;;
6442;SDS011;3254;47.372;8.512;2023-07-29T07:18:10;5.10;;;4.50;;
6442;SDS011;3254;47.372;8.512;2023-07-29T07:20:36;5.00;;;4.60;;
6442;SDS011;3254;47.372;8.512;2023-07-29T07:23:05;5.00;;;4.60;;
6442;SDS011;3254;47.372;8.512;2023-07-29T07:25:35;7.30;;;4.70;;
6442;SDS011;3254;47.372;8.512;2023-07-29T07:28:01;5.60;;;5.10;;
6442;SDS011;3254;47.372;8.512;2023-07-29T07:30:26;5.17;;;4.77;;
6442;SDS011;3254;47.372;8.512;2023-07-29T07:32:52;6.10;;;5.30;;
6442;SDS011;3254;47.372;8.512;2023-07-29T07:35:19;5.40;;;4.30;;
6442;SDS011;3254;47.372;8.512;2023-07-29T07:37:45;5.33;;;4.90;;
6442;SDS011;3254;47.372;8.512;2023-07-29T07:40:10;6.03;;;4.30;;
6442;SDS011;3254;47.372;8.512;2023-07-29T07:42:36;10.20;;;5.60;;
6442;SDS011;3254;47.372;8.512;2023-07-29T07:45:02;7.80;;;4.90;;
6442;SDS011;3254;47.372;8.512;2023-07-29T07:47:27;4.97;;;4.43;;
6442;SDS011;3254;47.372;8.512;2023-07-29T07:49:53;8.60;;;4.67;;
6442;SDS011;3254;47.372;8.512;2023-07-29T07:52:18;5.37;;;4.97;;
6442;SDS011;3254;47.372;8.512;2023-07-29T07:54:45;6.50;;;5.00;;
6442;SDS011;3254;47.372;8.512;2023-07-29T07:57:16;5.23;;;4.53;;
6442;SDS011;3254;47.372;8.512;2023-07-29T07:59:42;5.13;;;4.63;;
6442;SDS011;3254;47.372;8.512;2023-07-29T08:02:07;5.40;;;4.90;;
6442;SDS011;3254;47.372;8.512;2023-07-29T08:04:33;5.10;;;4.80;;
6442;SDS011;3254;47.372;8.512;2023-07-29T08:06:58;4.53;;;4.23;;
6442;SDS011;3254;47.372;8.512;2023-07-29T08:09:24;6.20;;;5.33;;
6442;SDS011;3254;47.372;8.512;2023-07-29T08:11:51;5.63;;;4.90;;
6442;SDS011;3254;47.372;8.512;2023-07-29T08:14:16;4.87;;;4.47;;
6442;SDS011;3254;47.372;8.512;2023-07-29T08:16:42;5.00;;;4.60;;
6442;SDS011;3254;47.372;8.512;2023-07-29T08:19:08;4.30;;;4.10;;
6442;SDS011;3254;47.372;8.512;2023-07-29T08:21:34;4.40;;;4.10;;
6442;SDS011;3254;47.372;8.512;2023-07-29T08:24:00;5.40;;;5.00;;
6442;SDS011;3254;47.372;8.512;2023-07-29T08:26:26;4.83;;;4.30;;
6442;SDS011;3254;47.372;8.512;2023-07-29T08:28:51;4.73;;;4.37;;
6442;SDS011;3254;47.372;8.512;2023-07-29T08:31:17;4.53;;;4.30;;
6442;SDS011;3254;47.372;8.512;2023-07-29T08:33:42;5.90;;;4.60;;
6442;SDS011;3254;47.372;8.512;2023-07-29T08:36:08;5.10;;;4.70;;
6442;SDS011;3254;47.372;8.512;2023-07-29T08:38:33;4.67;;;4.37;;
6442;SDS011;3254;47.372;8.512;2023-07-29T08:41:04;4.47;;;4.23;;
6442;SDS011;3254;47.372;8.512;2023-07-29T08:46:34;4.80;;;4.50;;
6442;SDS011;3254;47.372;8.512;2023-07-29T08:48:59;9.63;;;4.73;;
6442;SDS011;3254;47.372;8.512;2023-07-29T08:51:27;4.87;;;4.57;;
6442;SDS011;3254;47.372;8.512;2023-07-29T08:53:54;4.90;;;4.37;;
6442;SDS011;3254;47.372;8.512;2023-07-29T08:56:20;4.50;;;4.20;;
6442;SDS011;3254;47.372;8.512;2023-07-29T08:58:46;4.70;;;4.33;;
6442;SDS011;3254;47.372;8.512;2023-07-29T09:01:12;4.87;;;4.57;;
6442;SDS011;3254;47.372;8.512;2023-07-29T09:03:37;4.27;;;3.97;;
6442;SDS011;3254;47.372;8.512;2023-07-29T09:06:03;5.30;;;4.80;;
6442;SDS011;3254;47.372;8.512;2023-07-29T09:08:32;4.63;;;4.33;;
6442;SDS011;3254;47.372;8.512;2023-07-29T09:10:58;4.10;;;3.90;;
6442;SDS011;3254;47.372;8.512;2023-07-29T09:13:24;4.17;;;3.87;;
6442;SDS011;3254;47.372;8.512;2023-07-29T09:15:53;5.90;;;4.00;;
6442;SDS011;3254;47.372;8.512;2023-07-29T09:18:20;4.47;;;4.07;;
6442;SDS011;3254;47.372;8.512;2023-07-29T09:20:46;4.20;;;3.90;;
6442;SDS011;3254;47.372;8.512;2023-07-29T09:23:13;4.33;;;4.00;;
6442;SDS011;3254;47.372;8.512;2023-07-29T09:25:39;4.37;;;4.17;;
6442;SDS011;3254;47.372;8.512;2023-07-29T09:28:12;4.70;;;4.30;;
6442;SDS011;3254;47.372;8.512;2023-07-29T09:30:39;4.10;;;3.70;;
6442;SDS011;3254;47.372;8.512;2023-07-29T09:33:06;4.37;;;4.07;;
6442;SDS011;3254;47.372;8.512;2023-07-29T09:35:33;4.73;;;4.33;;
6442;SDS011;3254;47.372;8.512;2023-07-29T09:38:00;4.23;;;3.90;;
6442;SDS011;3254;47.372;8.512;2023-07-29T09:40:26;4.30;;;3.90;;
6442;SDS011;3254;47.372;8.512;2023-07-29T09:42:54;3.93;;;3.70;;
6442;SDS011;3254;47.372;8.512;2023-07-29T09:45:20;4.17;;;3.60;;
6442;SDS011;3254;47.372;8.512;2023-07-29T09:47:46;4.30;;;4.00;;
6442;SDS011;3254;47.372;8.512;2023-07-29T09:50:12;3.63;;;3.40;;
6442;SDS011;3254;47.372;8.512;2023-07-29T09:52:38;4.17;;;3.20;;
6442;SDS011;3254;47.372;8.512;2023-07-29T09:55:03;3.63;;;3.43;;
6442;SDS011;3254;47.372;8.512;2023-07-29T09:57:31;3.80;;;3.53;;
6442;SDS011;3254;47.372;8.512;2023-07-29T09:59:57;4.80;;;4.40;;
6442;SDS011;3254;47.372;8.512;2023-07-29T10:02:23;11.83;;;3.40;;
6442;SDS011;3254;47.372;8.512;2023-07-29T10:04:50;3.83;;;3.57;;
6442;SDS011;3254;47.372;8.512;2023-07-29T10:07:19;3.40;;;3.30;;
6442;SDS011;3254;47.372;8.512;2023-07-29T10:09:45;4.60;;;4.20;;
6442;SDS011;3254;47.372;8.512;2023-07-29T10:12:11;3.67;;;3.53;;
6442;SDS011;3254;47.372;8.512;2023-07-29T10:14:38;3.50;;;3.30;;
6442;SDS011;3254;47.372;8.512;2023-07-29T10:17:04;4.10;;;3.90;;
6442;SDS011;3254;47.372;8.512;2023-07-29T10:19:30;4.03;;;3.67;;
6442;SDS011;3254;47.372;8.512;2023-07-29T10:22:00;5.27;;;3.40;;
6442;SDS011;3254;47.372;8.512;2023-07-29T10:24:32;3.50;;;3.30;;
6442;SDS011;3254;47.372;8.512;2023-07-29T10:27:09;3.40;;;3.20;;
6442;SDS011;3254;47.372;8.512;2023-07-29T10:29:41;4.27;;;4.07;;
6442;SDS011;3254;47.372;8.512;2023-07-29T10:32:11;5.20;;;3.23;;
6442;SDS011;3254;47.372;8.512;2023-07-29T10:34:38;3.63;;;3.33;;
6442;SDS011;3254;47.372;8.512;2023-07-29T10:37:05;3.90;;;3.70;;
6442;SDS011;3254;47.372;8.512;2023-07-29T10:39:37;5.13;;;3.60;;
6442;SDS011;3254;47.372;8.512;2023-07-29T10:42:16;3.73;;;3.53;;
6442;SDS011;3254;47.372;8.512;2023-07-29T10:44:45;3.80;;;3.60;;
6442;SDS011;3254;47.372;8.512;2023-07-29T10:47:16;3.90;;;3.70;;
6442;SDS011;3254;47.372;8.512;2023-07-29T10:49:54;4.13;;;3.73;;
6442;SDS011;3254;47.372;8.512;2023-07-29T10:52:29;9.23;;;3.80;;
6442;SDS011;3254;47.372;8.512;2023-07-29T11:00:57;4.10;;;3.90;;
6442;SDS011;3254;47.372;8.512;2023-07-29T11:03:23;4.23;;;3.93;;
6442;SDS011;3254;47.372;8.512;2023-07-29T11:05:53;4.00;;;3.60;;
6442;SDS011;3254;47.372;8.512;2023-07-29T11:13:30;4.57;;;4.17;;
6442;SDS011;3254;47.372;8.512;2023-07-29T11:15:58;4.70;;;4.40;;
6442;SDS011;3254;47.372;8.512;2023-07-29T11:18:30;4.50;;;4.20;;
6442;SDS011;3254;47.372;8.512;2023-07-29T11:20:58;4.40;;;4.10;;
6442;SDS011;3254;47.372;8.512;2023-07-29T11:23:35;4.10;;;3.90;;
6442;SDS011;3254;47.372;8.512;2023-07-29T11:26:02;4.53;;;4.13;;
6442;SDS011;3254;47.372;8.512;2023-07-29T11:28:28;5.10;;;3.70;;
6442;SDS011;3254;47.372;8.512;2023-07-29T11:30:55;4.07;;;3.80;;
6442;SDS011;3254;47.372;8.512;2023-07-29T11:33:22;10.30;;;5.03;;
6442;SDS011;3254;47.372;8.512;2023-07-29T11:35:54;10.50;;;5.40;;
6442;SDS011;3254;47.372;8.512;2023-07-29T11:38:22;29.43;;;8.17;;
6442;SDS011;3254;47.372;8.512;2023-07-29T11:40:58;13.70;;;8.17;;
6442;SDS011;3254;47.372;8.512;2023-07-29T11:43:25;17.57;;;12.67;;
6442;SDS011;3254;47.372;8.512;2023-07-29T11:45:52;19.47;;;14.70;;
6442;SDS011;3254;47.372;8.512;2023-07-29T11:48:18;18.50;;;14.43;;
6442;SDS011;3254;47.372;8.512;2023-07-29T11:50:53;9.10;;;7.40;;
6442;SDS011;3254;47.372;8.512;2023-07-29T11:53:21;7.97;;;6.60;;
6442;SDS011;3254;47.372;8.512;2023-07-29T11:55:50;6.03;;;5.50;;
6442;SDS011;3254;47.372;8.512;2023-07-29T11:58:17;6.77;;;5.80;;
6442;SDS011;3254;47.372;8.512;2023-07-29T12:00:43;9.27;;;5.90;;
6442;SDS011;3254;47.372;8.512;2023-07-29T12:03:09;9.80;;;6.60;;
6442;SDS011;3254;47.372;8.512;2023-07-29T12:05:35;5.10;;;4.60;;
6442;SDS011;3254;47.372;8.512;2023-07-29T12:08:01;8.40;;;4.47;;
6442;SDS011;3254;47.372;8.512;2023-07-29T12:10:27;5.33;;;4.70;;
6442;SDS011;3254;47.372;8.512;2023-07-29T12:12:54;5.20;;;4.80;;
6442;SDS011;3254;47.372;8.512;2023-07-29T12:15:24;4.80;;;4.40;;
6442;SDS011;3254;47.372;8.512;2023-07-29T12:17:54;4.20;;;3.90;;
6442;SDS011;3254;47.372;8.512;2023-07-29T12:20:24;4.10;;;3.90;;
6442;SDS011;3254;47.372;8.512;2023-07-29T12:22:58;4.13;;;3.80;;
6442;SDS011;3254;47.372;8.512;2023-07-29T12:25:27;4.73;;;4.43;;
6442;SDS011;3254;47.372;8.512;2023-07-29T12:27:54;5.40;;;4.77;;
6442;SDS011;3254;47.372;8.512;2023-07-29T12:30:21;5.43;;;4.93;;
6442;SDS011;3254;47.372;8.512;2023-07-29T12:32:47;5.87;;;5.40;;
6442;SDS011;3254;47.372;8.512;2023-07-29T12:35:14;5.00;;;4.70;;
6442;SDS011;3254;47.372;8.512;2023-07-29T12:37:42;6.67;;;5.70;;
6442;SDS011;3254;47.372;8.512;2023-07-29T12:40:29;6.80;;;6.20;;
6442;SDS011;3254;47.372;8.512;2023-07-29T12:42:54;5.73;;;5.23;;
6442;SDS011;3254;47.372;8.512;2023-07-29T12:45:20;10.80;;;6.00;;
6442;SDS011;3254;47.372;8.512;2023-07-29T12:47:48;7.53;;;6.50;;
6442;SDS011;3254;47.372;8.512;2023-07-29T12:50:13;10.30;;;3.80;;
6442;SDS011;3254;47.372;8.512;2023-07-29T12:52:39;17.83;;;3.83;;
6442;SDS011;3254;47.372;8.512;2023-07-29T12:55:05;3.67;;;3.37;;
6442;SDS011;3254;47.372;8.512;2023-07-29T12:57:33;7.90;;;4.07;;
6442;SDS011;3254;47.372;8.512;2023-07-29T12:59:58;4.60;;;4.30;;
6442;SDS011;3254;47.372;8.512;2023-07-29T13:02:24;9.67;;;5.23;;
6442;SDS011;3254;47.372;8.512;2023-07-29T13:04:51;5.80;;;4.40;;
6442;SDS011;3254;47.372;8.512;2023-07-29T13:07:16;5.40;;;4.90;;
6442;SDS011;3254;47.372;8.512;2023-07-29T13:09:42;7.10;;;4.50;;
6442;SDS011;3254;47.372;8.512;2023-07-29T13:12:07;6.93;;;5.77;;
6442;SDS011;3254;47.372;8.512;2023-07-29T13:14:34;6.13;;;5.53;;
6442;SDS011;3254;47.372;8.512;2023-07-29T13:16:59;5.77;;;5.33;;
6442;SDS011;3254;47.372;8.512;2023-07-29T13:19:27;8.10;;;5.40;;
6442;SDS011;3254;47.372;8.512;2023-07-29T13:21:56;6.23;;;5.63;;
6442;SDS011;3254;47.372;8.512;2023-07-29T13:24:26;5.23;;;4.83;;
6442;SDS011;3254;47.372;8.512;2023-07-29T13:26:51;5.33;;;4.83;;
6442;SDS011;3254;47.372;8.512;2023-07-29T13:29:17;4.90;;;4.40;;
6442;SDS011;3254;47.372;8.512;2023-07-29T13:31:42;8.37;;;4.43;;
6442;SDS011;3254;47.372;8.512;2023-07-29T13:34:08;4.27;;;4.00;;
6442;SDS011;3254;47.372;8.512;2023-07-29T13:36:33;5.10;;;4.60;;
6442;SDS011;3254;47.372;8.512;2023-07-29T13:38:59;13.63;;;5.67;;
6442;SDS011;3254;47.372;8.512;2023-07-29T13:41:26;4.73;;;4.40;;
6442;SDS011;3254;47.372;8.512;2023-07-29T13:43:51;6.30;;;4.53;;
6442;SDS011;3254;47.372;8.512;2023-07-29T13:46:17;6.80;;;4.50;;
6442;SDS011;3254;47.372;8.512;2023-07-29T13:48:46;4.87;;;4.40;;
6442;SDS011;3254;47.372;8.512;2023-07-29T13:51:11;5.43;;;4.93;;
6442;SDS011;3254;47.372;8.512;2023-07-29T13:53:38;5.30;;;4.17;;
6442;SDS011;3254;47.372;8.512;2023-07-29T13:56:04;4.93;;;4.20;;
6442;SDS011;3254;47.372;8.512;2023-07-29T13:58:31;4.57;;;4.13;;
6442;SDS011;3254;47.372;8.512;2023-07-29T14:00:56;4.63;;;4.23;;
6442;SDS011;3254;47.372;8.512;2023-07-29T14:03:24;15.47;;;4.30;;
6442;SDS011;3254;47.372;8.512;2023-07-29T14:05:49;4.17;;;3.83;;
6442;SDS011;3254;47.372;8.512;2023-07-29T14:08:15;4.87;;;4.57;;
6442;SDS011;3254;47.372;8.512;2023-07-29T14:10:42;4.93;;;4.30;;
6442;SDS011;3254;47.372;8.512;2023-07-29T14:13:07;5.53;;;4.87;;
6442;SDS011;3254;47.372;8.512;2023-07-29T14:15:33;5.07;;;4.60;;
6442;SDS011;3254;47.372;8.512;2023-07-29T14:17:59;5.73;;;5.10;;
6442;SDS011;3254;47.372;8.512;2023-07-29T14:20:27;8.40;;;4.17;;
6442;SDS011;3254;47.372;8.512;2023-07-29T14:22:54;9.13;;;4.53;;
6442;SDS011;3254;47.372;8.512;2023-07-29T14:25:21;5.13;;;4.70;;
6442;SDS011;3254;47.372;8.512;2023-07-29T14:27:47;5.03;;;4.53;;
6442;SDS011;3254;47.372;8.512;2023-07-29T14:30:13;13.07;;;4.67;;
6442;SDS011;3254;47.372;8.512;2023-07-29T14:32:38;5.07;;;4.77;;
6442;SDS011;3254;47.372;8.512;2023-07-29T14:35:06;5.20;;;4.70;;
6442;SDS011;3254;47.372;8.512;2023-07-29T14:37:33;5.20;;;4.70;;
6442;SDS011;3254;47.372;8.512;2023-07-29T14:40:00;5.70;;;4.53;;
6442;SDS011;3254;47.372;8.512;2023-07-29T14:42:27;5.20;;;4.70;;
6442;SDS011;3254;47.372;8.512;2023-07-29T14:44:54;5.70;;;4.80;;
6442;SDS011;3254;47.372;8.512;2023-07-29T14:47:21;5.57;;;3.87;;
6442;SDS011;3254;47.372;8.512;2023-07-29T14:49:48;4.00;;;3.57;;
6442;SDS011;3254;47.372;8.512;2023-07-29T14:52:13;8.50;;;4.03;;
6442;SDS011;3254;47.372;8.512;2023-07-29T14:54:40;3.80;;;3.60;;
6442;SDS011;3254;47.372;8.512;2023-07-29T14:57:06;6.30;;;2.97;;
6442;SDS011;3254;47.372;8.512;2023-07-29T14:59:32;4.70;;;3.17;;
6442;SDS011;3254;47.372;8.512;2023-07-29T15:01:58;5.83;;;3.50;;
6442;SDS011;3254;47.372;8.512;2023-07-29T15:04:24;3.87;;;3.67;;
6442;SDS011;3254;47.372;8.512;2023-07-29T15:06:50;3.63;;;3.23;;
6442;SDS011;3254;47.372;8.512;2023-07-29T15:09:17;4.03;;;3.83;;
6442;SDS011;3254;47.372;8.512;2023-07-29T15:11:43;3.97;;;3.77;;
6442;SDS011;3254;47.372;8.512;2023-07-29T15:14:09;3.87;;;3.57;;
6442;SDS011;3254;47.372;8.512;2023-07-29T15:16:37;6.43;;;4.37;;
6442;SDS011;3254;47.372;8.512;2023-07-29T15:19:04;3.60;;;3.40;;
6442;SDS011;3254;47.372;8.512;2023-07-29T15:21:31;3.77;;;3.47;;
6442;SDS011;3254;47.372;8.512;2023-07-29T15:23:58;3.67;;;3.47;;
6442;SDS011;3254;47.372;8.512;2023-07-29T15:26:27;3.87;;;3.67;;
6442;SDS011;3254;47.372;8.512;2023-07-29T15:28:53;3.90;;;3.70;;
6442;SDS011;3254;47.372;8.512;2023-07-29T15:31:19;3.80;;;3.60;;